Terminal Aerodrome Forecast
Issued by NWS

Home | Current Version | Previous Version | Graphics & Text | Print | Product List | Glossary On
Versions: 1 2 3 4 5 6 7 8 9 10 11 12
000
FTUS45 KGGW 311100 RRA
TAFSDY
TAF
KSDY 311141Z 3112/0112 VRB06KT P6SM SCT200
     FM010000 17009KT P6SM BKN150
     FM010600 24012KT P6SM VCSH BKN110
     FM010900 28020G29KT P6SM VCSH BKN110
      AMD LTD TO CLD VIS AND WIND=

USA.gov is the U.S. government's official web portal to all federal, state and local government web resources and services.